sensor_id;sensor_type;location;lat;lon;timestamp;temperature;humidity
25582;DHT22;13462;50.764;4.332;2022-10-30T00:00:05;17.90;99.90
25582;DHT22;13462;50.764;4.332;2022-10-30T00:02:32;18.00;99.90
25582;DHT22;13462;50.764;4.332;2022-10-30T00:04:58;18.10;99.90
25582;DHT22;13462;50.764;4.332;2022-10-30T00:07:23;18.00;99.90
25582;DHT22;13462;50.764;4.332;2022-10-30T00:09:49;18.00;99.90
25582;DHT22;13462;50.764;4.332;2022-10-30T00:12:14;17.90;99.90
25582;DHT22;13462;50.764;4.332;2022-10-30T00:14:40;17.90;99.90
25582;DHT22;13462;50.764;4.332;2022-10-30T00:17:05;17.90;99.90
25582;DHT22;13462;50.764;4.332;2022-10-30T00:19:31;17.90;99.90
25582;DHT22;13462;50.764;4.332;2022-10-30T00:21:56;17.80;99.90
25582;DHT22;13462;50.764;4.332;2022-10-30T00:24:23;17.70;99.90
25582;DHT22;13462;50.764;4.332;2022-10-30T00:26:48;17.70;99.90
25582;DHT22;13462;50.764;4.332;2022-10-30T00:29:14;17.70;99.90
25582;DHT22;13462;50.764;4.332;2022-10-30T00:31:40;17.70;99.90
25582;DHT22;13462;50.764;4.332;2022-10-30T00:34:06;17.70;99.90
25582;DHT22;13462;50.764;4.332;2022-10-30T00:36:31;17.70;99.90
25582;DHT22;13462;50.764;4.332;2022-10-30T00:38:57;17.70;99.90
25582;DHT22;13462;50.764;4.332;2022-10-30T00:41:23;17.60;99.90
25582;DHT22;13462;50.764;4.332;2022-10-30T00:43:50;17.60;99.90
25582;DHT22;13462;50.764;4.332;2022-10-30T00:46:37;17.60;99.90
25582;DHT22;13462;50.764;4.332;2022-10-30T00:49:15;17.60;99.90
25582;DHT22;13462;50.764;4.332;2022-10-30T00:51:44;17.60;99.90
25582;DHT22;13462;50.764;4.332;2022-10-30T00:54:11;17.60;99.90
25582;DHT22;13462;50.764;4.332;2022-10-30T00:56:39;17.50;99.90
25582;DHT22;13462;50.764;4.332;2022-10-30T00:59:08;17.50;99.90
25582;DHT22;13462;50.764;4.332;2022-10-30T01:01:37;17.60;99.90
25582;DHT22;13462;50.764;4.332;2022-10-30T01:04:04;17.50;99.90
25582;DHT22;13462;50.764;4.332;2022-10-30T01:06:33;17.50;99.90
25582;DHT22;13462;50.764;4.332;2022-10-30T01:09:01;17.50;99.90
25582;DHT22;13462;50.764;4.332;2022-10-30T01:11:27;17.40;99.90
25582;DHT22;13462;50.764;4.332;2022-10-30T01:13:54;17.30;99.90
25582;DHT22;13462;50.764;4.332;2022-10-30T01:16:29;17.40;99.90
25582;DHT22;13462;50.764;4.332;2022-10-30T01:30:19;17.40;99.90
25582;DHT22;13462;50.764;4.332;2022-10-30T01:38:51;17.30;99.90
25582;DHT22;13462;50.764;4.332;2022-10-30T01:41:18;17.10;99.90
25582;DHT22;13462;50.764;4.332;2022-10-30T01:43:46;17.10;99.90
25582;DHT22;13462;50.764;4.332;2022-10-30T01:52:00;16.90;99.90
25582;DHT22;13462;50.764;4.332;2022-10-30T01:54:40;16.90;99.90
25582;DHT22;13462;50.764;4.332;2022-10-30T02:00:08;16.80;99.90
25582;DHT22;13462;50.764;4.332;2022-10-30T02:02:35;16.70;99.90
25582;DHT22;13462;50.764;4.332;2022-10-30T02:05:01;16.60;99.90
25582;DHT22;13462;50.764;4.332;2022-10-30T02:07:27;16.50;99.90
25582;DHT22;13462;50.764;4.332;2022-10-30T02:09:53;16.30;99.90
25582;DHT22;13462;50.764;4.332;2022-10-30T02:12:20;16.30;99.90
25582;DHT22;13462;50.764;4.332;2022-10-30T02:14:49;16.20;99.90
25582;DHT22;13462;50.764;4.332;2022-10-30T02:17:16;16.30;99.90
25582;DHT22;13462;50.764;4.332;2022-10-30T02:19:42;16.20;99.90
25582;DHT22;13462;50.764;4.332;2022-10-30T02:22:09;16.20;99.90
25582;DHT22;13462;50.764;4.332;2022-10-30T02:24:34;16.10;99.90
25582;DHT22;13462;50.764;4.332;2022-10-30T02:27:00;15.90;99.90
25582;DHT22;13462;50.764;4.332;2022-10-30T02:29:26;15.80;99.90
25582;DHT22;13462;50.764;4.332;2022-10-30T02:31:51;15.90;99.90
25582;DHT22;13462;50.764;4.332;2022-10-30T02:34:17;15.90;99.90
25582;DHT22;13462;50.764;4.332;2022-10-30T02:36:43;16.10;99.90
25582;DHT22;13462;50.764;4.332;2022-10-30T02:39:08;16.20;99.90
25582;DHT22;13462;50.764;4.332;2022-10-30T02:41:34;16.20;99.90
25582;DHT22;13462;50.764;4.332;2022-10-30T02:43:59;16.30;99.90
25582;DHT22;13462;50.764;4.332;2022-10-30T02:46:26;16.10;99.90
25582;DHT22;13462;50.764;4.332;2022-10-30T02:48:51;15.90;99.90
25582;DHT22;13462;50.764;4.332;2022-10-30T02:51:17;16.00;99.90
25582;DHT22;13462;50.764;4.332;2022-10-30T02:53:43;16.10;99.90
25582;DHT22;13462;50.764;4.332;2022-10-30T02:56:11;16.10;99.90
25582;DHT22;13462;50.764;4.332;2022-10-30T02:58:37;16.10;99.90
25582;DHT22;13462;50.764;4.332;2022-10-30T03:01:07;16.00;99.90
25582;DHT22;13462;50.764;4.332;2022-10-30T03:03:32;15.90;99.90
25582;DHT22;13462;50.764;4.332;2022-10-30T03:06:03;15.90;99.90
25582;DHT22;13462;50.764;4.332;2022-10-30T03:08:29;16.20;99.90
25582;DHT22;13462;50.764;4.332;2022-10-30T03:11:09;16.30;99.90
25582;DHT22;13462;50.764;4.332;2022-10-30T03:13:36;16.30;99.90
25582;DHT22;13462;50.764;4.332;2022-10-30T03:16:03;16.40;99.90
25582;DHT22;13462;50.764;4.332;2022-10-30T03:18:30;16.50;99.90
25582;DHT22;13462;50.764;4.332;2022-10-30T03:21:00;16.40;99.90
25582;DHT22;13462;50.764;4.332;2022-10-30T03:23:27;16.20;99.90
25582;DHT22;13462;50.764;4.332;2022-10-30T03:25:57;16.30;99.90
25582;DHT22;13462;50.764;4.332;2022-10-30T03:28:25;16.10;99.90
25582;DHT22;13462;50.764;4.332;2022-10-30T03:30:56;15.90;99.90
25582;DHT22;13462;50.764;4.332;2022-10-30T03:33:22;15.90;99.90
25582;DHT22;13462;50.764;4.332;2022-10-30T03:35:47;16.00;99.90
25582;DHT22;13462;50.764;4.332;2022-10-30T03:38:13;16.00;99.90
25582;DHT22;13462;50.764;4.332;2022-10-30T03:40:39;15.90;99.90
25582;DHT22;13462;50.764;4.332;2022-10-30T03:43:05;15.90;99.90
25582;DHT22;13462;50.764;4.332;2022-10-30T03:45:32;15.70;99.90
25582;DHT22;13462;50.764;4.332;2022-10-30T03:48:01;15.80;99.90
25582;DHT22;13462;50.764;4.332;2022-10-30T03:50:28;15.80;99.90
25582;DHT22;13462;50.764;4.332;2022-10-30T03:52:55;15.90;99.90
25582;DHT22;13462;50.764;4.332;2022-10-30T03:55:21;15.90;99.90
25582;DHT22;13462;50.764;4.332;2022-10-30T03:57:47;15.90;99.90
25582;DHT22;13462;50.764;4.332;2022-10-30T04:00:13;15.80;99.90
25582;DHT22;13462;50.764;4.332;2022-10-30T04:02:43;15.80;99.90
25582;DHT22;13462;50.764;4.332;2022-10-30T04:05:08;15.70;99.90
25582;DHT22;13462;50.764;4.332;2022-10-30T04:07:34;15.70;99.90
25582;DHT22;13462;50.764;4.332;2022-10-30T04:09:59;15.60;99.90
25582;DHT22;13462;50.764;4.332;2022-10-30T04:12:25;15.50;99.90
25582;DHT22;13462;50.764;4.332;2022-10-30T04:14:50;15.50;99.90
25582;DHT22;13462;50.764;4.332;2022-10-30T04:17:18;15.50;99.90
25582;DHT22;13462;50.764;4.332;2022-10-30T04:19:43;15.40;99.90
25582;DHT22;13462;50.764;4.332;2022-10-30T04:22:09;15.40;99.90
25582;DHT22;13462;50.764;4.332;2022-10-30T04:24:34;15.40;99.90
25582;DHT22;13462;50.764;4.332;2022-10-30T04:27:00;15.40;99.90
25582;DHT22;13462;50.764;4.332;2022-10-30T04:29:25;15.30;99.90
25582;DHT22;13462;50.764;4.332;2022-10-30T04:31:51;15.30;99.90
25582;DHT22;13462;50.764;4.332;2022-10-30T04:34:16;15.20;99.90
25582;DHT22;13462;50.764;4.332;2022-10-30T04:36:42;15.20;99.90
25582;DHT22;13462;50.764;4.332;2022-10-30T04:39:08;15.10;99.90
25582;DHT22;13462;50.764;4.332;2022-10-30T04:41:34;15.10;99.90
25582;DHT22;13462;50.764;4.332;2022-10-30T04:43:59;15.10;99.90
25582;DHT22;13462;50.764;4.332;2022-10-30T04:46:25;15.00;99.90
25582;DHT22;13462;50.764;4.332;2022-10-30T04:48:51;14.90;99.90
25582;DHT22;13462;50.764;4.332;2022-10-30T04:51:17;15.00;99.90
25582;DHT22;13462;50.764;4.332;2022-10-30T04:53:43;15.00;99.90
25582;DHT22;13462;50.764;4.332;2022-10-30T04:56:08;15.00;99.90
25582;DHT22;13462;50.764;4.332;2022-10-30T04:58:34;15.00;99.90
25582;DHT22;13462;50.764;4.332;2022-10-30T05:01:04;15.00;99.90
25582;DHT22;13462;50.764;4.332;2022-10-30T05:03:30;15.00;99.90
25582;DHT22;13462;50.764;4.332;2022-10-30T05:06:10;15.00;99.90
25582;DHT22;13462;50.764;4.332;2022-10-30T05:08:37;15.00;99.90
25582;DHT22;13462;50.764;4.332;2022-10-30T05:11:04;14.90;99.90
25582;DHT22;13462;50.764;4.332;2022-10-30T05:13:29;14.90;99.90
25582;DHT22;13462;50.764;4.332;2022-10-30T05:15:55;14.80;99.90
25582;DHT22;13462;50.764;4.332;2022-10-30T05:18:21;14.80;99.90
25582;DHT22;13462;50.764;4.332;2022-10-30T05:20:46;14.70;99.90
25582;DHT22;13462;50.764;4.332;2022-10-30T05:23:12;14.60;99.90
25582;DHT22;13462;50.764;4.332;2022-10-30T05:25:38;14.50;99.90
25582;DHT22;13462;50.764;4.332;2022-10-30T05:28:05;14.30;99.90
25582;DHT22;13462;50.764;4.332;2022-10-30T05:30:32;14.30;99.90
25582;DHT22;13462;50.764;4.332;2022-10-30T05:33:03;14.30;99.90
25582;DHT22;13462;50.764;4.332;2022-10-30T05:35:29;14.40;99.90
25582;DHT22;13462;50.764;4.332;2022-10-30T05:37:57;14.40;99.90
25582;DHT22;13462;50.764;4.332;2022-10-30T05:40:23;14.40;99.90
25582;DHT22;13462;50.764;4.332;2022-10-30T05:42:48;14.40;99.90
25582;DHT22;13462;50.764;4.332;2022-10-30T05:45:15;14.50;99.90
25582;DHT22;13462;50.764;4.332;2022-10-30T05:47:41;14.40;99.90
25582;DHT22;13462;50.764;4.332;2022-10-30T05:50:07;14.40;99.90
25582;DHT22;13462;50.764;4.332;2022-10-30T05:52:33;14.50;99.90
25582;DHT22;13462;50.764;4.332;2022-10-30T05:54:58;14.50;99.90
25582;DHT22;13462;50.764;4.332;2022-10-30T05:57:27;14.40;99.90
25582;DHT22;13462;50.764;4.332;2022-10-30T05:59:52;14.50;99.90
25582;DHT22;13462;50.764;4.332;2022-10-30T06:02:18;14.50;99.90
25582;DHT22;13462;50.764;4.332;2022-10-30T06:04:44;14.40;99.90
25582;DHT22;13462;50.764;4.332;2022-10-30T06:07:10;14.50;99.90
25582;DHT22;13462;50.764;4.332;2022-10-30T06:09:35;14.50;99.90
25582;DHT22;13462;50.764;4.332;2022-10-30T06:12:01;14.60;99.90
25582;DHT22;13462;50.764;4.332;2022-10-30T06:14:27;14.60;99.90
25582;DHT22;13462;50.764;4.332;2022-10-30T06:16:52;14.60;99.90
25582;DHT22;13462;50.764;4.332;2022-10-30T06:19:18;14.60;99.90
25582;DHT22;13462;50.764;4.332;2022-10-30T06:21:43;14.60;99.90
25582;DHT22;13462;50.764;4.332;2022-10-30T06:24:09;14.60;99.90
25582;DHT22;13462;50.764;4.332;2022-10-30T06:26:35;14.60;99.90
25582;DHT22;13462;50.764;4.332;2022-10-30T06:29:00;14.70;99.90
25582;DHT22;13462;50.764;4.332;2022-10-30T06:31:26;14.70;99.90
25582;DHT22;13462;50.764;4.332;2022-10-30T06:33:51;14.70;99.90
25582;DHT22;13462;50.764;4.332;2022-10-30T06:36:17;14.70;99.90
25582;DHT22;13462;50.764;4.332;2022-10-30T06:38:43;14.70;99.90
25582;DHT22;13462;50.764;4.332;2022-10-30T06:41:08;14.80;99.90
25582;DHT22;13462;50.764;4.332;2022-10-30T06:43:34;14.80;99.90
25582;DHT22;13462;50.764;4.332;2022-10-30T06:46:00;14.80;99.90
25582;DHT22;13462;50.764;4.332;2022-10-30T06:48:26;14.80;99.90
25582;DHT22;13462;50.764;4.332;2022-10-30T06:50:55;14.80;99.90
25582;DHT22;13462;50.764;4.332;2022-10-30T06:53:21;14.80;99.90
25582;DHT22;13462;50.764;4.332;2022-10-30T06:58:20;15.00;99.90
25582;DHT22;13462;50.764;4.332;2022-10-30T07:00:46;15.10;99.90
25582;DHT22;13462;50.764;4.332;2022-10-30T07:03:11;15.10;99.90
25582;DHT22;13462;50.764;4.332;2022-10-30T07:05:37;15.20;99.90
25582;DHT22;13462;50.764;4.332;2022-10-30T07:08:02;15.20;99.90
25582;DHT22;13462;50.764;4.332;2022-10-30T07:10:28;15.20;99.90
25582;DHT22;13462;50.764;4.332;2022-10-30T07:12:54;15.20;99.90
25582;DHT22;13462;50.764;4.332;2022-10-30T07:15:21;15.30;99.90
25582;DHT22;13462;50.764;4.332;2022-10-30T07:17:57;15.40;99.90
25582;DHT22;13462;50.764;4.332;2022-10-30T07:20:24;15.40;99.90
25582;DHT22;13462;50.764;4.332;2022-10-30T07:22:50;15.50;99.90
25582;DHT22;13462;50.764;4.332;2022-10-30T07:25:15;15.70;99.90
25582;DHT22;13462;50.764;4.332;2022-10-30T07:27:43;15.80;99.90
25582;DHT22;13462;50.764;4.332;2022-10-30T07:30:13;15.90;99.90
25582;DHT22;13462;50.764;4.332;2022-10-30T07:32:39;16.00;99.90
25582;DHT22;13462;50.764;4.332;2022-10-30T07:35:05;16.10;99.90
25582;DHT22;13462;50.764;4.332;2022-10-30T07:37:31;16.20;99.90
25582;DHT22;13462;50.764;4.332;2022-10-30T07:39:57;16.30;99.90
25582;DHT22;13462;50.764;4.332;2022-10-30T07:42:22;16.30;99.90
25582;DHT22;13462;50.764;4.332;2022-10-30T07:44:48;16.40;99.90
25582;DHT22;13462;50.764;4.332;2022-10-30T07:47:13;16.50;99.90
25582;DHT22;13462;50.764;4.332;2022-10-30T07:49:39;16.70;99.90
25582;DHT22;13462;50.764;4.332;2022-10-30T07:52:05;16.80;99.90
25582;DHT22;13462;50.764;4.332;2022-10-30T07:54:30;17.00;99.90
25582;DHT22;13462;50.764;4.332;2022-10-30T07:56:56;17.10;99.90
25582;DHT22;13462;50.764;4.332;2022-10-30T07:59:23;17.40;99.90
25582;DHT22;13462;50.764;4.332;2022-10-30T08:01:49;17.70;99.90
25582;DHT22;13462;50.764;4.332;2022-10-30T08:04:14;18.00;99.90
25582;DHT22;13462;50.764;4.332;2022-10-30T08:06:40;18.20;99.90
25582;DHT22;13462;50.764;4.332;2022-10-30T08:09:06;18.50;99.90
25582;DHT22;13462;50.764;4.332;2022-10-30T08:11:32;19.00;99.90
25582;DHT22;13462;50.764;4.332;2022-10-30T08:13:57;19.10;99.90
25582;DHT22;13462;50.764;4.332;2022-10-30T08:16:23;19.10;99.90
25582;DHT22;13462;50.764;4.332;2022-10-30T08:18:49;19.10;99.90
25582;DHT22;13462;50.764;4.332;2022-10-30T08:21:15;19.00;99.90
25582;DHT22;13462;50.764;4.332;2022-10-30T08:23:40;18.90;99.90
25582;DHT22;13462;50.764;4.332;2022-10-30T08:26:06;18.90;99.90
25582;DHT22;13462;50.764;4.332;2022-10-30T08:28:32;18.80;99.90
25582;DHT22;13462;50.764;4.332;2022-10-30T08:30:58;18.70;99.90
25582;DHT22;13462;50.764;4.332;2022-10-30T08:33:24;18.70;99.90
25582;DHT22;13462;50.764;4.332;2022-10-30T08:35:54;18.60;99.90
25582;DHT22;13462;50.764;4.332;2022-10-30T08:38:23;18.60;99.90
25582;DHT22;13462;50.764;4.332;2022-10-30T08:40:50;18.60;99.90
25582;DHT22;13462;50.764;4.332;2022-10-30T08:43:15;18.60;99.90
25582;DHT22;13462;50.764;4.332;2022-10-30T08:45:41;19.30;99.90
25582;DHT22;13462;50.764;4.332;2022-10-30T08:48:09;20.60;99.90
25582;DHT22;13462;50.764;4.332;2022-10-30T08:50:35;21.80;99.90
25582;DHT22;13462;50.764;4.332;2022-10-30T08:53:03;23.00;99.90
25582;DHT22;13462;50.764;4.332;2022-10-30T08:55:30;23.20;99.90
25582;DHT22;13462;50.764;4.332;2022-10-30T08:57:55;23.50;99.90
25582;DHT22;13462;50.764;4.332;2022-10-30T09:00:21;24.40;99.90
25582;DHT22;13462;50.764;4.332;2022-10-30T09:02:47;25.40;99.10
25582;DHT22;13462;50.764;4.332;2022-10-30T09:05:12;25.80;97.10
25582;DHT22;13462;50.764;4.332;2022-10-30T09:07:38;26.40;96.30
25582;DHT22;13462;50.764;4.332;2022-10-30T09:10:04;27.00;94.50
25582;DHT22;13462;50.764;4.332;2022-10-30T09:12:30;27.90;92.80
25582;DHT22;13462;50.764;4.332;2022-10-30T09:14:55;28.20;91.10
25582;DHT22;13462;50.764;4.332;2022-10-30T09:17:21;28.00;91.30
25582;DHT22;13462;50.764;4.332;2022-10-30T09:19:47;28.40;90.60
25582;DHT22;13462;50.764;4.332;2022-10-30T09:22:12;28.30;90.20
25582;DHT22;13462;50.764;4.332;2022-10-30T09:24:38;28.20;90.80
25582;DHT22;13462;50.764;4.332;2022-10-30T09:27:05;29.30;88.70
25582;DHT22;13462;50.764;4.332;2022-10-30T09:29:31;30.20;85.70
25582;DHT22;13462;50.764;4.332;2022-10-30T09:31:57;30.80;83.30
25582;DHT22;13462;50.764;4.332;2022-10-30T09:34:23;31.00;79.50
25582;DHT22;13462;50.764;4.332;2022-10-30T09:36:48;30.80;80.70
25582;DHT22;13462;50.764;4.332;2022-10-30T09:39:14;31.20;78.10
25582;DHT22;13462;50.764;4.332;2022-10-30T09:44:56;32.70;74.10
25582;DHT22;13462;50.764;4.332;2022-10-30T09:50:17;32.70;70.60
25582;DHT22;13462;50.764;4.332;2022-10-30T09:53:01;32.10;71.30
25582;DHT22;13462;50.764;4.332;2022-10-30T09:55:39;31.40;73.60
25582;DHT22;13462;50.764;4.332;2022-10-30T09:58:24;31.30;74.60
25582;DHT22;13462;50.764;4.332;2022-10-30T10:06:27;32.00;72.40
25582;DHT22;13462;50.764;4.332;2022-10-30T10:09:03;32.10;72.10
25582;DHT22;13462;50.764;4.332;2022-10-30T10:11:36;32.00;72.70
25582;DHT22;13462;50.764;4.332;2022-10-30T10:16:35;29.80;75.90
25582;DHT22;13462;50.764;4.332;2022-10-30T10:19:18;27.80;81.60
25582;DHT22;13462;50.764;4.332;2022-10-30T10:21:50;27.20;86.70
25582;DHT22;13462;50.764;4.332;2022-10-30T10:24:22;27.10;87.10
25582;DHT22;13462;50.764;4.332;2022-10-30T10:26:59;26.90;87.50
25582;DHT22;13462;50.764;4.332;2022-10-30T10:35:08;25.00;92.10
25582;DHT22;13462;50.764;4.332;2022-10-30T10:37:51;24.40;93.60
25582;DHT22;13462;50.764;4.332;2022-10-30T10:46:14;23.60;97.10
25582;DHT22;13462;50.764;4.332;2022-10-30T10:51:56;23.30;97.20
25582;DHT22;13462;50.764;4.332;2022-10-30T10:54:28;23.40;97.90
25582;DHT22;13462;50.764;4.332;2022-10-30T10:56:56;23.30;98.30
25582;DHT22;13462;50.764;4.332;2022-10-30T10:59:36;23.30;98.00
25582;DHT22;13462;50.764;4.332;2022-10-30T11:02:39;23.30;99.00
25582;DHT22;13462;50.764;4.332;2022-10-30T11:07:48;22.90;99.90
25582;DHT22;13462;50.764;4.332;2022-10-30T11:10:17;22.50;99.90
25582;DHT22;13462;50.764;4.332;2022-10-30T11:12:42;22.00;99.90
25582;DHT22;13462;50.764;4.332;2022-10-30T11:15:22;22.10;99.90
25582;DHT22;13462;50.764;4.332;2022-10-30T11:18:09;22.00;99.90
25582;DHT22;13462;50.764;4.332;2022-10-30T11:23:32;22.20;99.90
25582;DHT22;13462;50.764;4.332;2022-10-30T11:25:58;22.10;99.90
25582;DHT22;13462;50.764;4.332;2022-10-30T11:28:41;22.40;99.90
25582;DHT22;13462;50.764;4.332;2022-10-30T11:31:26;22.90;99.90
25582;DHT22;13462;50.764;4.332;2022-10-30T11:34:43;23.40;99.90
25582;DHT22;13462;50.764;4.332;2022-10-30T11:36:49;23.30;99.90
25582;DHT22;13462;50.764;4.332;2022-10-30T11:39:25;23.20;99.90
25582;DHT22;13462;50.764;4.332;2022-10-30T11:42:01;22.60;99.90
25582;DHT22;13462;50.764;4.332;2022-10-30T11:44:36;22.20;99.90
25582;DHT22;13462;50.764;4.332;2022-10-30T11:47:04;22.20;99.90
25582;DHT22;13462;50.764;4.332;2022-10-30T11:52:03;22.70;99.90
25582;DHT22;13462;50.764;4.332;2022-10-30T11:54:35;22.30;99.90
25582;DHT22;13462;50.764;4.332;2022-10-30T11:57:01;22.30;99.90
25582;DHT22;13462;50.764;4.332;2022-10-30T11:59:27;21.80;99.90
25582;DHT22;13462;50.764;4.332;2022-10-30T12:01:57;21.70;99.90
25582;DHT22;13462;50.764;4.332;2022-10-30T12:04:26;22.10;99.90
25582;DHT22;13462;50.764;4.332;2022-10-30T12:09:41;22.40;99.90
25582;DHT22;13462;50.764;4.332;2022-10-30T12:12:11;22.50;99.90
25582;DHT22;13462;50.764;4.332;2022-10-30T12:14:37;22.60;99.90
25582;DHT22;13462;50.764;4.332;2022-10-30T12:17:03;22.70;99.90
25582;DHT22;13462;50.764;4.332;2022-10-30T12:19:29;22.60;99.90
25582;DHT22;13462;50.764;4.332;2022-10-30T12:21:57;22.50;99.90
25582;DHT22;13462;50.764;4.332;2022-10-30T12:24:28;23.00;99.90
25582;DHT22;13462;50.764;4.332;2022-10-30T12:26:56;23.60;99.90
25582;DHT22;13462;50.764;4.332;2022-10-30T12:29:33;24.30;99.90
25582;DHT22;13462;50.764;4.332;2022-10-30T12:32:05;25.00;97.40
25582;DHT22;13462;50.764;4.332;2022-10-30T12:35:03;25.20;97.00
25582;DHT22;13462;50.764;4.332;2022-10-30T12:37:30;25.20;97.40
25582;DHT22;13462;50.764;4.332;2022-10-30T12:40:02;25.60;95.90
25582;DHT22;13462;50.764;4.332;2022-10-30T12:42:30;25.80;95.20
25582;DHT22;13462;50.764;4.332;2022-10-30T12:45:03;25.80;94.90
25582;DHT22;13462;50.764;4.332;2022-10-30T12:47:50;26.30;93.50
25582;DHT22;13462;50.764;4.332;2022-10-30T12:50:22;26.00;94.20
25582;DHT22;13462;50.764;4.332;2022-10-30T12:52:58;26.50;93.40
25582;DHT22;13462;50.764;4.332;2022-10-30T12:55:40;26.70;93.80
25582;DHT22;13462;50.764;4.332;2022-10-30T12:58:19;27.10;93.10
25582;DHT22;13462;50.764;4.332;2022-10-30T13:01:05;27.60;91.20
25582;DHT22;13462;50.764;4.332;2022-10-30T13:03:40;27.90;89.50
25582;DHT22;13462;50.764;4.332;2022-10-30T13:06:14;27.60;90.30
25582;DHT22;13462;50.764;4.332;2022-10-30T13:09:02;27.70;90.50
25582;DHT22;13462;50.764;4.332;2022-10-30T13:11:39;27.70;89.60
25582;DHT22;13462;50.764;4.332;2022-10-30T13:14:15;27.80;89.50
25582;DHT22;13462;50.764;4.332;2022-10-30T13:16:41;27.80;89.10
25582;DHT22;13462;50.764;4.332;2022-10-30T13:19:11;27.30;89.70
25582;DHT22;13462;50.764;4.332;2022-10-30T13:22:01;26.50;90.50
25582;DHT22;13462;50.764;4.332;2022-10-30T13:30:17;26.30;91.80
25582;DHT22;13462;50.764;4.332;2022-10-30T13:35:53;27.40;90.80
25582;DHT22;13462;50.764;4.332;2022-10-30T13:41:33;28.10;88.00
25582;DHT22;13462;50.764;4.332;2022-10-30T13:44:32;28.20;86.90
25582;DHT22;13462;50.764;4.332;2022-10-30T13:52:16;27.50;89.00
25582;DHT22;13462;50.764;4.332;2022-10-30T13:57:45;27.10;88.80
25582;DHT22;13462;50.764;4.332;2022-10-30T14:00:34;26.60;89.70
25582;DHT22;13462;50.764;4.332;2022-10-30T14:03:22;25.90;91.20
25582;DHT22;13462;50.764;4.332;2022-10-30T14:08:40;24.90;93.10
25582;DHT22;13462;50.764;4.332;2022-10-30T14:11:11;24.90;93.20
25582;DHT22;13462;50.764;4.332;2022-10-30T14:16:38;24.30;94.30
25582;DHT22;13462;50.764;4.332;2022-10-30T14:19:14;24.10;94.80
25582;DHT22;13462;50.764;4.332;2022-10-30T14:21:53;24.00;95.70
25582;DHT22;13462;50.764;4.332;2022-10-30T14:37:14;22.80;98.70
25582;DHT22;13462;50.764;4.332;2022-10-30T14:39:42;22.20;99.90
25582;DHT22;13462;50.764;4.332;2022-10-30T14:53:09;20.20;99.90
25582;DHT22;13462;50.764;4.332;2022-10-30T14:56:01;20.00;99.90
25582;DHT22;13462;50.764;4.332;2022-10-30T14:58:32;19.70;99.90
25582;DHT22;13462;50.764;4.332;2022-10-30T15:06:21;19.60;99.90
25582;DHT22;13462;50.764;4.332;2022-10-30T15:14:32;19.60;99.90
25582;DHT22;13462;50.764;4.332;2022-10-30T15:16:59;19.40;99.90
25582;DHT22;13462;50.764;4.332;2022-10-30T15:19:26;19.30;99.90
25582;DHT22;13462;50.764;4.332;2022-10-30T15:21:54;19.30;99.90
25582;DHT22;13462;50.764;4.332;2022-10-30T15:24:25;19.30;99.90
25582;DHT22;13462;50.764;4.332;2022-10-30T15:26:52;19.00;99.90
25582;DHT22;13462;50.764;4.332;2022-10-30T15:29:29;19.10;99.90
25582;DHT22;13462;50.764;4.332;2022-10-30T15:32:18;18.80;99.90
25582;DHT22;13462;50.764;4.332;2022-10-30T15:34:59;18.80;99.90
25582;DHT22;13462;50.764;4.332;2022-10-30T15:37:25;18.70;99.90
25582;DHT22;13462;50.764;4.332;2022-10-30T15:40:18;18.70;99.90
25582;DHT22;13462;50.764;4.332;2022-10-30T15:42:45;18.70;99.90
25582;DHT22;13462;50.764;4.332;2022-10-30T15:45:20;18.60;99.90
25582;DHT22;13462;50.764;4.332;2022-10-30T15:47:52;18.60;99.90
25582;DHT22;13462;50.764;4.332;2022-10-30T15:50:19;18.30;99.90
25582;DHT22;13462;50.764;4.332;2022-10-30T15:52:46;18.30;99.90
25582;DHT22;13462;50.764;4.332;2022-10-30T15:55:16;18.20;99.90
25582;DHT22;13462;50.764;4.332;2022-10-30T15:57:50;18.30;99.90
25582;DHT22;13462;50.764;4.332;2022-10-30T16:00:25;18.20;99.90
25582;DHT22;13462;50.764;4.332;2022-10-30T16:03:05;18.20;99.90
25582;DHT22;13462;50.764;4.332;2022-10-30T16:05:31;18.10;99.90
25582;DHT22;13462;50.764;4.332;2022-10-30T16:07:59;18.20;99.90
25582;DHT22;13462;50.764;4.332;2022-10-30T16:10:33;18.30;99.90
25582;DHT22;13462;50.764;4.332;2022-10-30T16:13:00;18.20;99.90
25582;DHT22;13462;50.764;4.332;2022-10-30T16:15:33;18.30;99.90
25582;DHT22;13462;50.764;4.332;2022-10-30T16:18:12;18.20;99.90
25582;DHT22;13462;50.764;4.332;2022-10-30T16:20:41;18.00;99.90
25582;DHT22;13462;50.764;4.332;2022-10-30T16:23:07;18.00;99.90
25582;DHT22;13462;50.764;4.332;2022-10-30T16:25:33;18.00;99.90
25582;DHT22;13462;50.764;4.332;2022-10-30T16:28:02;17.90;99.90
25582;DHT22;13462;50.764;4.332;2022-10-30T16:30:29;17.80;99.90
25582;DHT22;13462;50.764;4.332;2022-10-30T16:32:57;17.70;99.90
25582;DHT22;13462;50.764;4.332;2022-10-30T16:35:23;17.80;99.90
25582;DHT22;13462;50.764;4.332;2022-10-30T16:37:50;17.90;99.90
25582;DHT22;13462;50.764;4.332;2022-10-30T16:40:19;17.80;99.90
25582;DHT22;13462;50.764;4.332;2022-10-30T16:42:57;17.70;99.90
25582;DHT22;13462;50.764;4.332;2022-10-30T16:47:53;17.70;99.90
25582;DHT22;13462;50.764;4.332;2022-10-30T16:50:34;17.60;99.90
25582;DHT22;13462;50.764;4.332;2022-10-30T16:55:36;17.50;99.90
25582;DHT22;13462;50.764;4.332;2022-10-30T16:58:03;17.40;99.90
25582;DHT22;13462;50.764;4.332;2022-10-30T17:00:29;17.40;99.90
25582;DHT22;13462;50.764;4.332;2022-10-30T17:02:56;17.40;99.90
25582;DHT22;13462;50.764;4.332;2022-10-30T17:07:59;17.10;99.90
25582;DHT22;13462;50.764;4.332;2022-10-30T17:10:43;17.20;99.90
25582;DHT22;13462;50.764;4.332;2022-10-30T17:15:58;17.10;99.90
25582;DHT22;13462;50.764;4.332;2022-10-30T17:18:28;17.10;99.90
25582;DHT22;13462;50.764;4.332;2022-10-30T17:21:14;17.10;99.90
25582;DHT22;13462;50.764;4.332;2022-10-30T17:23:45;17.20;99.90
25582;DHT22;13462;50.764;4.332;2022-10-30T17:26:12;17.00;99.90
25582;DHT22;13462;50.764;4.332;2022-10-30T17:28:38;16.90;99.90
25582;DHT22;13462;50.764;4.332;2022-10-30T17:31:27;16.80;99.90
25582;DHT22;13462;50.764;4.332;2022-10-30T17:36:41;16.60;99.90
25582;DHT22;13462;50.764;4.332;2022-10-30T17:39:06;16.50;99.90
25582;DHT22;13462;50.764;4.332;2022-10-30T17:41:32;16.50;99.90
25582;DHT22;13462;50.764;4.332;2022-10-30T17:43:57;16.50;99.90
25582;DHT22;13462;50.764;4.332;2022-10-30T17:46:24;16.40;99.90
25582;DHT22;13462;50.764;4.332;2022-10-30T17:48:49;16.30;99.90
25582;DHT22;13462;50.764;4.332;2022-10-30T17:51:16;16.30;99.90
25582;DHT22;13462;50.764;4.332;2022-10-30T17:53:42;16.20;99.90
25582;DHT22;13462;50.764;4.332;2022-10-30T17:56:27;16.10;99.90
25582;DHT22;13462;50.764;4.332;2022-10-30T17:58:54;16.00;99.90
25582;DHT22;13462;50.764;4.332;2022-10-30T18:01:23;16.10;99.90
25582;DHT22;13462;50.764;4.332;2022-10-30T18:03:51;16.00;99.90